createdAt,value
2023-01-17T00:01:08.581Z,98979.13
2023-01-17T00:04:03.061Z,98985.06
2023-01-17T00:06:51.504Z,98992.78
2023-01-17T00:09:38.078Z,98994.25
2023-01-17T00:12:09.165Z,98984.09
2023-01-17T00:14:35.993Z,98995.25
2023-01-17T00:17:08.417Z,98992.38
2023-01-17T00:19:56.230Z,98996.47
2023-01-17T00:22:48.387Z,99006.09
2023-01-17T00:25:43.910Z,99007.44
2023-01-17T00:28:10.638Z,99006.69
2023-01-17T00:30:43.434Z,99002.28
2023-01-17T00:33:11.485Z,99019.09
2023-01-17T00:35:42.401Z,99016.31
2023-01-17T00:38:15.116Z,99003.59
2023-01-17T00:40:58.690Z,99003.25
2023-01-17T00:43:43.986Z,98996.31
2023-01-17T00:49:34.923Z,99001.50
2023-01-17T00:52:39.741Z,99005.78
2023-01-17T00:55:30.228Z,99005.03
2023-01-17T00:58:21.353Z,99000.28
2023-01-17T01:01:29.430Z,99010.41
2023-01-17T01:04:16.196Z,99005.50
2023-01-17T01:07:07.469Z,99011.03
2023-01-17T01:10:01.421Z,99021.34
2023-01-17T01:12:49.597Z,99017.66
2023-01-17T01:15:41.430Z,99025.63
2023-01-17T01:18:37.514Z,99010.03
2023-01-17T01:21:29.845Z,99024.56
2023-01-17T01:24:15.268Z,99020.25
2023-01-17T01:27:03.402Z,99026.56
2023-01-17T01:30:03.833Z,99019.81
2023-01-17T01:33:01.810Z,99018.59
2023-01-17T01:35:33.756Z,99032.63
2023-01-17T01:38:07.825Z,99027.53
2023-01-17T01:40:51.327Z,99030.84
2023-01-17T01:44:00.211Z,99027.13
2023-01-17T01:46:57.806Z,99012.00
2023-01-17T01:49:40.440Z,99025.94
2023-01-17T01:52:14.535Z,99025.13
2023-01-17T01:54:47.360Z,99018.72
2023-01-17T01:57:23.399Z,99015.44
2023-01-17T01:59:57.945Z,99010.88
2023-01-17T02:02:25.059Z,99027.75
2023-01-17T02:05:09.156Z,99033.25
2023-01-17T02:07:48.670Z,99034.13
2023-01-17T02:10:23.709Z,99033.13
2023-01-17T02:12:53.057Z,99032.38
2023-01-17T02:15:34.274Z,99016.94
2023-01-17T02:18:26.073Z,99025.41
2023-01-17T02:21:19.146Z,99032.25
2023-01-17T02:24:04.723Z,99042.75
2023-01-17T02:26:57.440Z,99034.44
2023-01-17T02:29:43.342Z,99037.94
2023-01-17T02:32:35.473Z,99030.31
2023-01-17T02:35:37.087Z,99035.56
2023-01-17T02:38:54.924Z,99037.25
2023-01-17T02:41:36.528Z,99023.81
2023-01-17T02:44:09.932Z,99022.84
2023-01-17T02:46:48.270Z,99030.13
2023-01-17T02:49:23.158Z,99020.94
2023-01-17T02:52:25.872Z,99017.94
2023-01-17T02:55:08.017Z,99015.56
2023-01-17T02:58:17.118Z,98993.41
2023-01-17T03:01:09.639Z,99000.47
2023-01-17T03:03:56.616Z,98998.75
2023-01-17T03:06:40.294Z,98997.94
2023-01-17T03:09:18.897Z,98995.16
2023-01-17T03:11:53.121Z,98994.31
2023-01-17T03:14:23.087Z,98990.88
2023-01-17T03:16:53.554Z,98977.81
2023-01-17T03:19:23.645Z,98986.59
2023-01-17T03:22:14.683Z,98981.94
2023-01-17T03:24:41.399Z,98983.13
2023-01-17T03:27:26.361Z,98987.88
2023-01-17T03:30:02.794Z,99003.66
2023-01-17T03:32:35.543Z,99013.56
2023-01-17T03:35:06.790Z,99007.91
2023-01-17T03:37:40.428Z,99005.94
2023-01-17T03:40:08.607Z,99011.06
2023-01-17T03:42:35.750Z,99010.59
2023-01-17T03:45:05.950Z,99005.00
2023-01-17T03:47:36.500Z,98999.16
2023-01-17T03:50:10.996Z,98987.19
2023-01-17T03:52:38.549Z,98988.22
2023-01-17T03:55:14.628Z,98986.09
2023-01-17T03:57:44.437Z,98988.72
2023-01-17T04:00:21.966Z,98981.84
2023-01-17T04:02:48.880Z,98970.59
2023-01-17T04:05:27.413Z,98961.38
2023-01-17T04:08:00.271Z,98959.56
2023-01-17T04:13:45.732Z,98961.00
2023-01-17T04:16:16.620Z,98958.78
2023-01-17T04:18:44.809Z,98948.59
2023-01-17T04:21:12.612Z,98957.94
2023-01-17T04:23:39.405Z,98946.34
2023-01-17T04:26:20.489Z,98952.41
2023-01-17T04:28:53.310Z,98952.78
2023-01-17T04:31:23.591Z,98954.00
2023-01-17T04:33:50.355Z,98955.34
2023-01-17T04:36:22.683Z,98938.53
2023-01-17T04:38:49.423Z,98940.66
2023-01-17T04:41:49.803Z,98953.78
2023-01-17T04:44:16.528Z,98948.31
2023-01-17T04:46:43.304Z,98944.69
2023-01-17T04:49:16.226Z,98927.88
2023-01-17T04:51:49.105Z,98930.44
2023-01-17T04:54:15.928Z,98925.50
2023-01-17T04:56:49.314Z,98928.13
2023-01-17T04:59:22.362Z,98922.38
2023-01-17T05:01:49.695Z,98910.25
2023-01-17T05:04:16.603Z,98906.31
2023-01-17T05:06:46.595Z,98910.13
2023-01-17T05:09:18.972Z,98901.31
2023-01-17T05:12:07.348Z,98894.28
2023-01-17T05:14:47.960Z,98883.09
2023-01-17T05:17:14.681Z,98890.63
2023-01-17T05:19:51.064Z,98894.59
2023-01-17T05:22:35.445Z,98884.09
2023-01-17T05:25:10.858Z,98880.28
2023-01-17T05:27:37.692Z,98882.94
2023-01-17T05:30:05.724Z,98879.06
2023-01-17T05:32:42.559Z,98890.59
2023-01-17T05:35:15.689Z,98885.28
2023-01-17T05:37:58.717Z,98881.28
2023-01-17T05:40:31.085Z,98887.72
2023-01-17T05:42:59.417Z,98880.53
2023-01-17T05:45:28.542Z,98877.81
2023-01-17T05:47:59.908Z,98859.69
2023-01-17T05:50:56.876Z,98856.88
2023-01-17T05:53:41.821Z,98848.69
2023-01-17T05:56:20.185Z,98848.88
2023-01-17T05:58:46.882Z,98857.59
2023-01-17T06:01:13.634Z,98854.69
2023-01-17T06:03:43.268Z,98849.59
2023-01-17T06:06:13.319Z,98849.59
2023-01-17T06:08:40.087Z,98860.00
2023-01-17T06:11:06.847Z,98857.53
2023-01-17T06:13:33.911Z,98855.34
2023-01-17T06:16:04.471Z,98854.22
2023-01-17T06:18:31.867Z,98845.22
2023-01-17T06:20:59.584Z,98855.63
2023-01-17T06:23:44.007Z,98858.44
2023-01-17T06:26:28.583Z,98867.22
2023-01-17T06:28:58.361Z,98863.81
2023-01-17T06:31:28.209Z,98864.22
2023-01-17T06:33:55.461Z,98861.97
2023-01-17T06:36:24.946Z,98860.56
2023-01-17T06:39:00.436Z,98857.00
2023-01-17T06:41:27.231Z,98861.81
2023-01-17T06:43:54.871Z,98859.63
2023-01-17T06:46:21.875Z,98865.66
2023-01-17T06:49:17.066Z,98867.47
2023-01-17T06:51:56.310Z,98854.03
2023-01-17T06:54:23.018Z,98855.75
2023-01-17T06:56:52.698Z,98853.31
2023-01-17T06:59:19.323Z,98849.50
2023-01-17T07:01:55.324Z,98834.69
2023-01-17T07:04:23.394Z,98841.75
2023-01-17T07:06:53.175Z,98829.53
2023-01-17T07:09:24.491Z,98828.06
2023-01-17T07:12:06.791Z,98824.50
2023-01-17T07:14:42.250Z,98817.66
2023-01-17T07:17:08.940Z,98813.13
2023-01-17T07:19:48.875Z,98799.41
2023-01-17T07:22:21.935Z,98808.63
2023-01-17T07:24:48.770Z,98806.53
2023-01-17T07:27:18.141Z,98801.28
2023-01-17T07:29:51.153Z,98801.38
2023-01-17T07:32:21.211Z,98812.84
2023-01-17T07:34:51.176Z,98794.53
2023-01-17T07:37:24.323Z,98795.00
2023-01-17T07:39:58.957Z,98791.81
2023-01-17T07:42:32.101Z,98780.81
2023-01-17T07:45:03.934Z,98774.06
2023-01-17T07:47:38.896Z,98774.81
2023-01-17T07:50:09.432Z,98774.22
2023-01-17T07:53:00.899Z,98784.59
2023-01-17T07:55:48.566Z,98780.13
2023-01-17T07:58:19.248Z,98770.44
2023-01-17T08:03:42.216Z,98746.59
2023-01-17T08:06:24.576Z,98736.84
2023-01-17T08:09:07.633Z,98734.66
2023-01-17T08:11:50.754Z,98699.09
2023-01-17T08:14:25.534Z,98699.50
2023-01-17T08:16:52.320Z,98699.06
2023-01-17T08:19:19.488Z,98688.72
2023-01-17T08:24:40.306Z,98688.31
2023-01-17T08:27:16.103Z,98691.19
2023-01-17T08:29:57.720Z,98696.63
2023-01-17T08:32:31.256Z,98683.31
2023-01-17T08:38:06.165Z,98680.50
2023-01-17T08:40:33.082Z,98680.22
2023-01-17T08:43:25.483Z,98679.63
2023-01-17T08:46:00.485Z,98669.75
2023-01-17T08:48:47.974Z,98659.84
2023-01-17T08:51:21.670Z,98651.28
2023-01-17T08:53:55.844Z,98654.69
2023-01-17T08:56:38.618Z,98652.44
2023-01-17T08:59:33.233Z,98647.63
2023-01-17T09:02:24.444Z,98645.47
2023-01-17T09:04:52.340Z,98635.44
2023-01-17T09:07:35.542Z,98632.97
2023-01-17T09:10:26.000Z,98621.69
2023-01-17T09:13:13.689Z,98627.31
2023-01-17T09:15:45.553Z,98614.75
2023-01-17T09:18:18.361Z,98609.13
2023-01-17T09:20:45.136Z,98616.19
2023-01-17T09:23:12.276Z,98616.34
2023-01-17T09:25:44.789Z,98615.03
2023-01-17T09:28:11.342Z,98618.91
2023-01-17T09:30:46.066Z,98605.53
2023-01-17T09:33:34.124Z,98598.03
2023-01-17T09:36:19.309Z,98608.50
2023-01-17T09:39:00.081Z,98604.28
2023-01-17T09:42:18.797Z,98603.41
2023-01-17T09:45:09.327Z,98600.84
2023-01-17T09:47:50.798Z,98604.78
2023-01-17T09:50:29.038Z,98603.28
2023-01-17T09:53:25.959Z,98612.66
2023-01-17T09:56:11.690Z,98609.44
2023-01-17T10:01:25.438Z,98607.38
2023-01-17T10:04:16.495Z,98615.69
2023-01-17T10:07:36.302Z,98607.22
2023-01-17T10:10:32.465Z,98598.97
2023-01-17T10:13:49.163Z,98588.56
2023-01-17T10:20:14.298Z,98575.63
2023-01-17T10:26:25.007Z,98574.72
2023-01-17T10:29:01.207Z,98567.78
2023-01-17T10:31:34.308Z,98547.41
2023-01-17T10:34:15.121Z,98536.66
2023-01-17T10:36:46.298Z,98529.22
2023-01-17T10:39:29.091Z,98521.31
2023-01-17T10:42:27.591Z,98516.84
2023-01-17T10:48:43.106Z,98508.53
2023-01-17T10:51:37.301Z,98499.53
2023-01-17T10:54:43.472Z,98499.84
2023-01-17T10:57:29.308Z,98489.50
2023-01-17T11:00:01.196Z,98479.16
2023-01-17T11:02:37.992Z,98458.16
2023-01-17T11:05:22.015Z,98474.59
2023-01-17T11:08:24.515Z,98479.38
2023-01-17T11:11:04.960Z,98460.31
2023-01-17T11:13:38.710Z,98448.06
2023-01-17T11:16:09.252Z,98449.16
2023-01-17T11:18:54.280Z,98446.88
2023-01-17T11:21:23.455Z,98442.56
2023-01-17T11:24:09.066Z,98437.88
2023-01-17T11:26:53.966Z,98435.13
2023-01-17T11:29:37.527Z,98415.56
2023-01-17T11:32:39.000Z,98417.31
2023-01-17T11:35:48.122Z,98402.94
2023-01-17T11:38:22.916Z,98396.97
2023-01-17T11:41:16.450Z,98391.69
2023-01-17T11:44:14.385Z,98381.78
2023-01-17T11:46:41.070Z,98373.78
2023-01-17T11:49:28.550Z,98364.56
2023-01-17T11:52:08.097Z,98364.59
2023-01-17T11:54:42.777Z,98364.75
2023-01-17T11:57:32.984Z,98365.78
2023-01-17T12:00:08.889Z,98386.19
2023-01-17T12:02:51.086Z,98391.03
2023-01-17T12:05:38.317Z,98388.28
2023-01-17T12:08:19.721Z,98378.53
2023-01-17T12:10:54.997Z,98375.56
2023-01-17T12:17:11.727Z,98364.13
2023-01-17T12:20:05.335Z,98348.81
2023-01-17T12:23:02.925Z,98345.84
2023-01-17T12:25:46.747Z,98357.25
2023-01-17T12:28:24.802Z,98353.81
2023-01-17T12:31:08.255Z,98354.00
2023-01-17T12:33:55.031Z,98352.41
2023-01-17T12:36:54.699Z,98349.75
2023-01-17T12:39:27.183Z,98336.44
2023-01-17T12:42:30.640Z,98331.44
2023-01-17T12:45:05.295Z,98317.69
2023-01-17T12:47:40.082Z,98295.59
2023-01-17T12:50:38.806Z,98279.53
2023-01-17T12:53:24.077Z,98306.50
2023-01-17T12:56:29.758Z,98320.06
2023-01-17T12:59:19.712Z,98325.44
2023-01-17T13:01:58.898Z,98312.00
2023-01-17T13:04:59.040Z,98321.75
2023-01-17T13:07:48.989Z,98328.13
2023-01-17T13:10:40.588Z,98327.41
2023-01-17T13:13:28.488Z,98320.00
2023-01-17T13:16:27.764Z,98322.41
2023-01-17T13:19:18.843Z,98324.25
2023-01-17T13:21:50.485Z,98315.84
2023-01-17T13:24:49.913Z,98310.47
2023-01-17T13:27:43.433Z,98311.22
2023-01-17T13:30:18.925Z,98323.03
2023-01-17T13:33:36.637Z,98328.94
2023-01-17T13:36:34.649Z,98318.50
2023-01-17T13:39:33.430Z,98324.25
2023-01-17T13:42:30.773Z,98340.47
2023-01-17T13:45:47.369Z,98329.78
2023-01-17T13:48:20.819Z,98337.56
2023-01-17T13:51:15.818Z,98334.06
2023-01-17T13:54:15.417Z,98326.41
2023-01-17T13:56:45.216Z,98325.50
2023-01-17T13:59:32.255Z,98328.38
2023-01-17T14:02:33.880Z,98340.75
2023-01-17T14:05:10.129Z,98349.66
2023-01-17T14:08:09.006Z,98347.94
2023-01-17T14:10:52.129Z,98356.31
2023-01-17T14:20:18.127Z,98347.03
2023-01-17T14:26:16.688Z,98380.72
2023-01-17T14:28:54.040Z,98383.19
2023-01-17T14:31:24.331Z,98369.97
2023-01-17T14:33:51.089Z,98372.91
2023-01-17T14:36:28.209Z,98358.75
2023-01-17T14:38:55.249Z,98352.00
2023-01-17T14:41:26.494Z,98354.88
2023-01-17T14:43:59.652Z,98363.56
2023-01-17T14:46:35.660Z,98376.63
2023-01-17T14:49:33.902Z,98373.63
2023-01-17T14:52:02.868Z,98374.69
2023-01-17T14:54:36.743Z,98370.03
2023-01-17T14:57:28.126Z,98366.44
2023-01-17T15:00:11.524Z,98383.69
2023-01-17T15:03:02.388Z,98382.81
2023-01-17T15:05:30.401Z,98388.34
2023-01-17T15:08:06.706Z,98388.56
2023-01-17T15:10:38.643Z,98382.97
2023-01-17T15:13:10.930Z,98387.63
2023-01-17T15:15:40.269Z,98394.63
2023-01-17T15:18:31.576Z,98397.25
2023-01-17T15:21:16.516Z,98388.44
2023-01-17T15:23:49.404Z,98384.75
2023-01-17T15:26:18.630Z,98388.25
2023-01-17T15:32:05.847Z,98388.22
2023-01-17T15:34:38.732Z,98374.00
2023-01-17T15:38:04.126Z,98380.50
2023-01-17T15:40:50.826Z,98372.78
2023-01-17T15:43:35.987Z,98382.19
2023-01-17T15:46:06.016Z,98380.16
2023-01-17T15:48:44.837Z,98365.53
2023-01-17T15:51:17.030Z,98346.28
2023-01-17T15:53:44.400Z,98346.56
2023-01-17T15:56:36.353Z,98344.41
2023-01-17T15:59:29.515Z,98362.53
2023-01-17T16:01:59.758Z,98363.41
2023-01-17T16:04:45.590Z,98357.44
2023-01-17T16:07:34.197Z,98372.59
2023-01-17T16:10:23.388Z,98366.44
2023-01-17T16:12:53.606Z,98381.59
2023-01-17T16:15:20.807Z,98387.91
2023-01-17T16:17:55.080Z,98384.22
2023-01-17T16:20:41.615Z,98380.75
2023-01-17T16:23:17.405Z,98380.63
2023-01-17T16:25:47.951Z,98390.38
2023-01-17T16:28:23.711Z,98411.28
2023-01-17T16:30:59.391Z,98419.63
2023-01-17T16:33:26.072Z,98417.66
2023-01-17T16:35:54.583Z,98426.78
2023-01-17T16:38:22.925Z,98427.53
2023-01-17T16:40:56.244Z,98415.97
2023-01-17T16:43:54.870Z,98415.22
2023-01-17T16:49:19.099Z,98434.50
2023-01-17T16:51:49.983Z,98438.63
2023-01-17T16:54:28.841Z,98431.59
2023-01-17T16:57:04.905Z,98433.31
2023-01-17T16:59:50.339Z,98452.13
2023-01-17T17:02:18.779Z,98458.28
2023-01-17T17:04:48.603Z,98438.59
2023-01-17T17:07:23.288Z,98430.09
2023-01-17T17:09:54.326Z,98437.34
2023-01-17T17:12:22.954Z,98446.41
2023-01-17T17:17:37.091Z,98443.94
2023-01-17T17:20:07.481Z,98434.25
2023-01-17T17:22:34.218Z,98424.16
2023-01-17T17:25:00.974Z,98422.31
2023-01-17T17:27:30.686Z,98426.03
2023-01-17T17:30:02.503Z,98424.59
2023-01-17T17:32:30.363Z,98430.41
2023-01-17T17:35:00.044Z,98424.38
2023-01-17T17:38:12.175Z,98426.91
2023-01-17T17:40:37.385Z,98428.44
2023-01-17T17:43:09.887Z,98436.09
2023-01-17T17:45:42.790Z,98447.78
2023-01-17T17:48:21.726Z,98447.56
2023-01-17T17:51:12.056Z,98449.03
2023-01-17T17:53:51.633Z,98454.94
2023-01-17T17:56:29.338Z,98466.50
2023-01-17T17:59:22.661Z,98450.03
2023-01-17T18:01:52.269Z,98433.00
2023-01-17T18:04:34.120Z,98424.88
2023-01-17T18:07:02.478Z,98423.78
2023-01-17T18:09:47.368Z,98433.09
2023-01-17T18:12:20.241Z,98443.13
2023-01-17T18:14:47.057Z,98440.56
2023-01-17T18:17:19.090Z,98445.09
2023-01-17T18:20:00.779Z,98447.56
2023-01-17T18:22:29.052Z,98440.41
2023-01-17T18:25:04.386Z,98456.06
2023-01-17T18:27:33.331Z,98475.38
2023-01-17T18:30:01.470Z,98474.19
2023-01-17T18:32:47.759Z,98473.00
2023-01-17T18:35:23.900Z,98467.28
2023-01-17T18:38:00.160Z,98462.50
2023-01-17T18:40:27.055Z,98467.16
2023-01-17T18:43:00.086Z,98475.63
2023-01-17T18:45:31.373Z,98489.63
2023-01-17T18:48:13.516Z,98486.47
2023-01-17T18:50:45.173Z,98496.78
2023-01-17T18:53:22.992Z,98498.03
2023-01-17T18:55:56.925Z,98504.22
2023-01-17T18:58:25.312Z,98505.94
2023-01-17T19:00:54.376Z,98499.38
2023-01-17T19:03:31.057Z,98489.72
2023-01-17T19:06:11.468Z,98494.50
2023-01-17T19:08:51.955Z,98484.53
2023-01-17T19:11:20.391Z,98479.28
2023-01-17T19:13:50.240Z,98477.19
2023-01-17T19:16:26.613Z,98476.97
2023-01-17T19:19:04.023Z,98476.00
2023-01-17T19:21:31.098Z,98480.06
2023-01-17T19:24:04.473Z,98476.13
2023-01-17T19:26:38.482Z,98486.06
2023-01-17T19:29:09.364Z,98479.94
2023-01-17T19:31:42.014Z,98490.97
2023-01-17T19:34:18.960Z,98484.00
2023-01-17T19:36:49.732Z,98476.16
2023-01-17T19:39:20.667Z,98487.50
2023-01-17T19:41:54.714Z,98497.03
2023-01-17T19:44:21.637Z,98503.88
2023-01-17T19:46:51.345Z,98505.13
2023-01-17T19:49:28.909Z,98508.56
2023-01-17T19:52:06.487Z,98510.31
2023-01-17T19:54:40.037Z,98514.47
2023-01-17T19:57:08.219Z,98510.06
2023-01-17T19:59:38.264Z,98514.88
2023-01-17T20:02:16.486Z,98499.09
2023-01-17T20:05:13.714Z,98508.28
2023-01-17T20:07:51.517Z,98522.13
2023-01-17T20:10:34.227Z,98526.78
2023-01-17T20:13:10.572Z,98522.31
2023-01-17T20:15:53.210Z,98519.84
2023-01-17T20:18:26.705Z,98518.41
2023-01-17T20:20:57.405Z,98516.50
2023-01-17T20:23:24.370Z,98513.78
2023-01-17T20:26:03.686Z,98513.94
2023-01-17T20:29:00.850Z,98514.78
2023-01-17T20:31:30.344Z,98500.13
2023-01-17T20:33:58.202Z,98502.13
2023-01-17T20:36:40.272Z,98497.88
2023-01-17T20:39:12.531Z,98486.06
2023-01-17T20:41:50.380Z,98489.28
2023-01-17T20:44:31.572Z,98492.16
2023-01-17T20:47:37.462Z,98492.16
2023-01-17T20:50:10.935Z,98491.75
2023-01-17T20:52:41.182Z,98497.69
2023-01-17T20:55:11.828Z,98506.44
2023-01-17T20:57:39.695Z,98520.53
2023-01-17T21:00:15.964Z,98520.13
2023-01-17T21:02:42.801Z,98526.94
2023-01-17T21:05:20.303Z,98533.09
2023-01-17T21:07:53.000Z,98531.91
2023-01-17T21:10:22.865Z,98536.69
2023-01-17T21:12:49.703Z,98548.13
2023-01-17T21:15:25.880Z,98551.47
2023-01-17T21:18:00.007Z,98546.88
2023-01-17T21:20:34.908Z,98549.41
2023-01-17T21:23:02.985Z,98551.25
2023-01-17T21:25:31.529Z,98553.41
2023-01-17T21:28:01.366Z,98556.66
2023-01-17T21:30:29.398Z,98554.63
2023-01-17T21:32:56.164Z,98560.97
2023-01-17T21:35:23.013Z,98561.81
2023-01-17T21:37:50.651Z,98570.63
2023-01-17T21:40:38.665Z,98568.03
2023-01-17T21:43:07.554Z,98558.56
2023-01-17T21:45:44.371Z,98548.38
2023-01-17T21:48:22.025Z,98555.06
2023-01-17T21:51:00.768Z,98544.72
2023-01-17T21:53:57.463Z,98524.00
2023-01-17T21:56:55.539Z,98510.81
2023-01-17T21:59:22.497Z,98515.69
2023-01-17T22:01:56.700Z,98530.91
2023-01-17T22:04:28.467Z,98532.69
2023-01-17T22:06:55.361Z,98538.38
2023-01-17T22:09:26.675Z,98522.63
2023-01-17T22:11:58.334Z,98518.19
2023-01-17T22:14:25.070Z,98517.72
2023-01-17T22:16:53.384Z,98522.63
2023-01-17T22:19:20.256Z,98528.59
2023-01-17T22:22:07.388Z,98526.16
2023-01-17T22:24:53.119Z,98517.34
2023-01-17T22:27:37.442Z,98500.38
2023-01-17T22:33:07.472Z,98523.69
2023-01-17T22:35:48.302Z,98514.75
2023-01-17T22:38:39.872Z,98509.94
2023-01-17T22:41:33.053Z,98507.94
2023-01-17T22:44:02.376Z,98511.13
2023-01-17T22:49:46.203Z,98533.16
2023-01-17T22:52:19.530Z,98529.16
2023-01-17T22:55:04.166Z,98527.03
2023-01-17T22:57:58.622Z,98518.53
2023-01-17T23:00:40.507Z,98506.63
2023-01-17T23:03:39.888Z,98509.72
2023-01-17T23:06:47.902Z,98518.03
2023-01-17T23:09:44.354Z,98523.75
2023-01-17T23:12:29.530Z,98516.75
2023-01-17T23:15:14.825Z,98522.38
2023-01-17T23:18:03.219Z,98516.63
2023-01-17T23:20:36.803Z,98521.72
2023-01-17T23:23:17.993Z,98515.81
2023-01-17T23:25:49.717Z,98528.81
2023-01-17T23:28:21.030Z,98525.19
2023-01-17T23:30:52.241Z,98534.50
2023-01-17T23:33:29.608Z,98548.94
2023-01-17T23:36:09.477Z,98551.38
2023-01-17T23:38:45.265Z,98552.03
2023-01-17T23:41:35.647Z,98555.50
2023-01-17T23:44:21.752Z,98556.91
2023-01-17T23:46:58.333Z,98539.97
2023-01-17T23:49:25.757Z,98530.50
2023-01-17T23:51:53.117Z,98525.34
2023-01-17T23:54:35.639Z,98510.19
2023-01-17T23:57:25.816Z,98496.22
2023-01-17T23:59:56.036Z,98498.09
